createdAt,value
2023-03-02T00:01:47.489Z,100.00
2023-03-02T00:04:50.380Z,100.00
2023-03-02T00:07:22.150Z,100.00
2023-03-02T00:09:49.592Z,100.00
2023-03-02T00:12:16.884Z,100.00
2023-03-02T00:14:44.491Z,100.00
2023-03-02T00:17:11.778Z,100.00
2023-03-02T00:19:39.152Z,100.00
2023-03-02T00:22:06.474Z,100.00
2023-03-02T00:24:33.762Z,100.00
2023-03-02T00:27:00.979Z,100.00
2023-03-02T00:29:28.319Z,100.00
2023-03-02T00:31:55.572Z,100.00
2023-03-02T00:34:22.862Z,100.00
2023-03-02T00:36:50.019Z,100.00
2023-03-02T00:39:20.345Z,100.00
2023-03-02T00:41:48.855Z,100.00
2023-03-02T00:44:19.636Z,100.00
2023-03-02T00:46:46.862Z,100.00
2023-03-02T00:49:14.191Z,100.00
2023-03-02T00:51:41.303Z,100.00
2023-03-02T00:54:08.573Z,100.00
2023-03-02T00:56:36.088Z,100.00
2023-03-02T00:59:29.452Z,100.00
2023-03-02T01:02:17.565Z,100.00
2023-03-02T01:04:46.483Z,100.00
2023-03-02T01:07:16.454Z,100.00
2023-03-02T01:09:45.363Z,100.00
2023-03-02T01:12:12.822Z,100.00
2023-03-02T01:14:43.503Z,100.00
2023-03-02T01:17:11.247Z,100.00
2023-03-02T01:19:39.338Z,100.00
2023-03-02T01:22:07.166Z,100.00
2023-03-02T01:24:34.513Z,100.00
2023-03-02T01:27:01.717Z,100.00
2023-03-02T01:29:28.955Z,100.00
2023-03-02T01:31:56.213Z,100.00
2023-03-02T01:34:23.491Z,100.00
2023-03-02T01:36:50.683Z,100.00
2023-03-02T01:39:18.181Z,100.00
2023-03-02T01:41:46.579Z,100.00
2023-03-02T01:44:57.384Z,100.00
2023-03-02T01:47:28.635Z,100.00
2023-03-02T01:50:16.421Z,100.00
2023-03-02T01:52:44.237Z,100.00
2023-03-02T01:55:15.225Z,100.00
2023-03-02T01:57:46.613Z,100.00
2023-03-02T02:00:23.891Z,100.00
2023-03-02T02:02:54.692Z,100.00
2023-03-02T02:05:25.625Z,100.00
2023-03-02T02:07:53.405Z,100.00
2023-03-02T02:10:21.154Z,100.00
2023-03-02T02:12:48.302Z,100.00
2023-03-02T02:15:15.612Z,100.00
2023-03-02T02:17:42.819Z,100.00
2023-03-02T02:20:39.524Z,100.00
2023-03-02T02:23:09.659Z,100.00
2023-03-02T02:25:53.205Z,100.00
2023-03-02T02:28:31.009Z,100.00
2023-03-02T02:31:16.480Z,100.00
2023-03-02T02:33:46.943Z,100.00
2023-03-02T02:36:20.467Z,100.00
2023-03-02T02:38:51.906Z,100.00
2023-03-02T02:41:27.930Z,100.00
2023-03-02T02:43:55.719Z,100.00
2023-03-02T02:46:23.863Z,100.00
2023-03-02T02:48:51.052Z,100.00
2023-03-02T02:51:23.846Z,100.00
2023-03-02T02:54:00.337Z,100.00
2023-03-02T02:56:38.776Z,100.00
2023-03-02T02:59:20.034Z,100.00
2023-03-02T03:01:48.508Z,100.00
2023-03-02T03:04:21.971Z,100.00
2023-03-02T03:06:55.800Z,100.00
2023-03-02T03:09:23.667Z,100.00
2023-03-02T03:11:57.034Z,100.00
2023-03-02T03:14:36.795Z,100.00
2023-03-02T03:17:12.680Z,100.00
2023-03-02T03:19:47.685Z,100.00
2023-03-02T03:22:16.928Z,100.00
2023-03-02T03:24:46.339Z,100.00
2023-03-02T03:27:16.721Z,100.00
2023-03-02T03:29:48.510Z,100.00
2023-03-02T03:32:18.427Z,100.00
2023-03-02T03:34:46.453Z,100.00
2023-03-02T03:37:20.813Z,100.00
2023-03-02T03:39:48.573Z,100.00
2023-03-02T03:42:17.150Z,100.00
2023-03-02T03:44:45.087Z,100.00
2023-03-02T03:47:12.444Z,100.00
2023-03-02T03:49:39.944Z,100.00
2023-03-02T03:52:08.275Z,100.00
2023-03-02T03:54:35.616Z,100.00
2023-03-02T03:57:03.138Z,100.00
2023-03-02T03:59:30.445Z,100.00
2023-03-02T04:02:03.105Z,100.00
2023-03-02T04:04:35.175Z,100.00
2023-03-02T04:07:20.340Z,100.00
2023-03-02T04:09:47.610Z,100.00
2023-03-02T04:12:16.060Z,100.00
2023-03-02T04:14:47.677Z,100.00
2023-03-02T04:17:14.945Z,100.00
2023-03-02T04:19:45.968Z,100.00
2023-03-02T04:22:13.582Z,100.00
2023-03-02T04:24:41.156Z,100.00
2023-03-02T04:27:08.911Z,100.00
2023-03-02T04:29:37.225Z,100.00
2023-03-02T04:32:06.931Z,100.00
2023-03-02T04:34:36.362Z,100.00
2023-03-02T04:37:04.317Z,100.00
2023-03-02T04:39:31.854Z,100.00
2023-03-02T04:41:58.998Z,100.00
2023-03-02T04:44:26.234Z,100.00
2023-03-02T04:46:53.506Z,100.00
2023-03-02T04:49:21.301Z,100.00
2023-03-02T04:51:50.484Z,100.00
2023-03-02T04:54:25.177Z,100.00
2023-03-02T04:56:53.559Z,100.00
2023-03-02T04:59:26.087Z,100.00
2023-03-02T05:01:55.447Z,100.00
2023-03-02T05:04:23.118Z,100.00
2023-03-02T05:06:50.345Z,100.00
2023-03-02T05:09:17.732Z,100.00
2023-03-02T05:11:45.157Z,100.00
2023-03-02T05:14:13.105Z,100.00
2023-03-02T05:16:41.896Z,100.00
2023-03-02T05:19:11.714Z,100.00
2023-03-02T05:21:39.480Z,100.00
2023-03-02T05:24:07.070Z,100.00
2023-03-02T05:26:34.719Z,100.00
2023-03-02T05:29:02.185Z,100.00
2023-03-02T05:31:39.130Z,100.00
2023-03-02T05:34:08.052Z,100.00
2023-03-02T05:36:36.145Z,100.00
2023-03-02T05:39:04.989Z,100.00
2023-03-02T05:41:32.351Z,100.00
2023-03-02T05:43:59.572Z,100.00
2023-03-02T05:46:27.649Z,100.00
2023-03-02T05:49:13.379Z,100.00
2023-03-02T05:51:40.485Z,100.00
2023-03-02T05:54:07.728Z,100.00
2023-03-02T05:56:35.336Z,100.00
2023-03-02T05:59:02.673Z,100.00
2023-03-02T06:01:29.947Z,100.00
2023-03-02T06:03:57.096Z,100.00
2023-03-02T06:06:24.368Z,100.00
2023-03-02T06:08:51.648Z,100.00
2023-03-02T06:11:18.902Z,100.00
2023-03-02T06:13:46.129Z,100.00
2023-03-02T06:16:13.721Z,100.00
2023-03-02T06:18:41.664Z,100.00
2023-03-02T06:21:09.082Z,100.00
2023-03-02T06:23:36.269Z,100.00
2023-03-02T06:26:11.284Z,100.00
2023-03-02T06:28:51.642Z,100.00
2023-03-02T06:31:20.766Z,100.00
2023-03-02T06:33:47.950Z,100.00
2023-03-02T06:36:17.059Z,100.00
2023-03-02T06:38:44.768Z,100.00
2023-03-02T06:41:12.048Z,100.00
2023-03-02T06:43:39.433Z,100.00
2023-03-02T06:46:06.796Z,100.00
2023-03-02T06:48:34.178Z,100.00
2023-03-02T06:51:01.520Z,100.00
2023-03-02T06:53:28.677Z,100.00
2023-03-02T06:55:55.899Z,100.00
2023-03-02T06:58:23.132Z,100.00
2023-03-02T07:00:50.275Z,100.00
2023-03-02T07:03:17.992Z,100.00
2023-03-02T07:05:46.317Z,100.00
2023-03-02T07:08:13.665Z,100.00
2023-03-02T07:10:40.779Z,100.00
2023-03-02T07:13:09.224Z,100.00
2023-03-02T07:15:39.609Z,100.00
2023-03-02T07:18:07.322Z,100.00
2023-03-02T07:20:34.581Z,100.00
2023-03-02T07:23:01.827Z,100.00
2023-03-02T07:25:28.946Z,100.00
2023-03-02T07:27:56.387Z,100.00
2023-03-02T07:30:23.604Z,100.00
2023-03-02T07:32:51.702Z,100.00
2023-03-02T07:35:19.145Z,100.00
2023-03-02T07:37:46.435Z,100.00
2023-03-02T07:40:14.061Z,100.00
2023-03-02T07:42:41.158Z,100.00
2023-03-02T07:45:09.001Z,100.00
2023-03-02T07:47:36.266Z,100.00
2023-03-02T07:50:04.198Z,100.00
2023-03-02T07:52:31.373Z,100.00
2023-03-02T07:54:58.572Z,100.00
2023-03-02T07:57:25.950Z,100.00
2023-03-02T07:59:53.149Z,100.00
2023-03-02T08:02:25.670Z,100.00
2023-03-02T08:04:53.401Z,100.00
2023-03-02T08:07:20.624Z,100.00
2023-03-02T08:09:47.825Z,100.00
2023-03-02T08:12:14.975Z,100.00
2023-03-02T08:14:42.296Z,100.00
2023-03-02T08:17:09.498Z,100.00
2023-03-02T08:19:36.868Z,100.00
2023-03-02T08:22:04.183Z,100.00
2023-03-02T08:24:31.924Z,100.00
2023-03-02T08:27:03.433Z,100.00
2023-03-02T08:29:31.126Z,100.00
2023-03-02T08:31:59.243Z,100.00
2023-03-02T08:34:27.092Z,100.00
2023-03-02T08:36:54.635Z,100.00
2023-03-02T08:39:24.440Z,100.00
2023-03-02T08:41:55.225Z,100.00
2023-03-02T08:44:22.688Z,100.00
2023-03-02T08:46:50.685Z,100.00
2023-03-02T08:49:19.130Z,100.00
2023-03-02T08:51:46.514Z,100.00
2023-03-02T08:54:13.793Z,100.00
2023-03-02T08:56:41.703Z,100.00
2023-03-02T08:59:12.708Z,100.00
2023-03-02T09:01:41.107Z,100.00
2023-03-02T09:04:10.063Z,100.00
2023-03-02T09:06:41.142Z,100.00
2023-03-02T09:09:09.738Z,100.00
2023-03-02T09:11:38.002Z,100.00
2023-03-02T09:14:05.554Z,100.00
2023-03-02T09:16:33.029Z,100.00
2023-03-02T09:19:03.007Z,100.00
2023-03-02T09:21:30.151Z,100.00
2023-03-02T09:23:58.483Z,100.00
2023-03-02T09:26:26.981Z,100.00
2023-03-02T09:28:54.686Z,100.00
2023-03-02T09:31:21.991Z,100.00
2023-03-02T09:33:49.312Z,100.00
2023-03-02T09:36:22.371Z,100.00
2023-03-02T09:38:50.082Z,100.00
2023-03-02T09:41:20.418Z,100.00
2023-03-02T09:43:53.708Z,100.00
2023-03-02T09:46:44.431Z,100.00
2023-03-02T09:49:32.704Z,100.00
2023-03-02T09:52:11.772Z,100.00
2023-03-02T09:54:41.039Z,100.00
2023-03-02T09:57:27.174Z,100.00
2023-03-02T10:00:06.774Z,100.00
2023-03-02T10:02:56.263Z,100.00
2023-03-02T10:05:34.452Z,100.00
2023-03-02T10:08:01.719Z,100.00
2023-03-02T10:10:46.427Z,100.00
2023-03-02T10:13:22.821Z,100.00
2023-03-02T10:15:59.203Z,100.00
2023-03-02T10:18:35.981Z,100.00
2023-03-02T10:21:13.113Z,100.00
2023-03-02T10:23:40.337Z,100.00
2023-03-02T10:26:55.643Z,100.00
2023-03-02T10:29:25.919Z,100.00
2023-03-02T10:32:00.492Z,100.00
2023-03-02T10:34:31.764Z,99.48
2023-03-02T10:36:58.976Z,96.29
2023-03-02T10:39:26.307Z,97.43
2023-03-02T10:41:59.177Z,97.92
2023-03-02T10:44:33.123Z,98.37
2023-03-02T10:47:00.359Z,98.44
2023-03-02T10:49:37.067Z,96.90
2023-03-02T10:52:05.945Z,95.37
2023-03-02T10:54:35.424Z,93.36
2023-03-02T10:57:06.287Z,93.95
2023-03-02T10:59:57.564Z,94.00
2023-03-02T11:02:27.686Z,93.92
2023-03-02T11:05:18.899Z,95.07
2023-03-02T11:07:56.127Z,93.12
2023-03-02T11:10:27.158Z,91.87
2023-03-02T11:12:54.420Z,92.08
2023-03-02T11:15:34.835Z,90.10
2023-03-02T11:18:01.894Z,90.54
2023-03-02T11:20:45.766Z,90.48
2023-03-02T11:23:35.562Z,89.78
2023-03-02T11:26:13.882Z,89.75
2023-03-02T11:28:45.453Z,87.88
2023-03-02T11:31:21.938Z,86.51
2023-03-02T11:34:07.895Z,85.18
2023-03-02T11:37:02.593Z,85.72
2023-03-02T11:39:50.011Z,85.18
2023-03-02T11:42:24.834Z,85.25
2023-03-02T11:44:52.081Z,85.20
2023-03-02T11:47:21.098Z,85.30
2023-03-02T11:50:05.324Z,86.45
2023-03-02T11:52:37.940Z,86.18
2023-03-02T11:55:13.478Z,87.64
2023-03-02T11:57:48.800Z,88.57
2023-03-02T12:00:25.396Z,89.25
2023-03-02T12:03:07.430Z,89.39
2023-03-02T12:05:37.855Z,90.83
2023-03-02T12:08:08.774Z,90.20
2023-03-02T12:10:45.682Z,90.16
2023-03-02T12:13:18.323Z,91.89
2023-03-02T12:15:47.973Z,91.80
2023-03-02T12:18:21.331Z,89.59
2023-03-02T12:21:03.857Z,88.29
2023-03-02T12:23:34.795Z,87.99
2023-03-02T12:26:22.116Z,92.62
2023-03-02T12:28:59.027Z,88.69
2023-03-02T12:31:27.217Z,88.83
2023-03-02T12:33:54.345Z,87.03
2023-03-02T12:36:32.140Z,88.59
2023-03-02T12:39:09.907Z,89.40
2023-03-02T12:42:04.294Z,89.76
2023-03-02T12:44:52.500Z,88.81
2023-03-02T12:47:27.426Z,89.93
2023-03-02T12:50:07.029Z,89.67
2023-03-02T12:52:36.687Z,90.08
2023-03-02T12:55:16.106Z,90.40
2023-03-02T12:57:51.554Z,90.65
2023-03-02T13:00:23.305Z,90.76
2023-03-02T13:02:56.575Z,90.51
2023-03-02T13:05:25.240Z,91.48
2023-03-02T13:08:02.937Z,92.28
2023-03-02T13:10:43.918Z,93.08
2023-03-02T13:13:16.772Z,93.18
2023-03-02T13:15:53.884Z,93.65
2023-03-02T13:18:22.722Z,94.37
2023-03-02T13:20:51.513Z,94.21
2023-03-02T13:23:19.980Z,93.85
2023-03-02T13:26:07.453Z,93.74
2023-03-02T13:28:37.291Z,93.54
2023-03-02T13:31:19.978Z,93.42
2023-03-02T13:33:50.509Z,92.38
2023-03-02T13:36:22.872Z,90.48
2023-03-02T13:38:53.192Z,91.52
2023-03-02T13:41:24.838Z,91.66
2023-03-02T13:43:52.054Z,91.51
2023-03-02T13:46:19.283Z,93.11
2023-03-02T13:49:10.234Z,92.41
2023-03-02T13:51:46.366Z,92.64
2023-03-02T13:54:28.697Z,92.06
2023-03-02T13:56:58.608Z,93.12
2023-03-02T13:59:26.015Z,93.71
2023-03-02T14:01:53.298Z,94.47
2023-03-02T14:04:23.567Z,95.72
2023-03-02T14:06:52.812Z,94.52
2023-03-02T14:09:20.688Z,94.36
2023-03-02T14:11:51.408Z,94.91
2023-03-02T14:14:25.273Z,95.65
2023-03-02T14:16:52.616Z,96.66
2023-03-02T14:19:20.322Z,96.91
2023-03-02T14:21:48.169Z,96.74
2023-03-02T14:24:15.810Z,95.96
2023-03-02T14:26:49.804Z,95.90
2023-03-02T14:29:26.706Z,96.00
2023-03-02T14:31:55.798Z,96.07
2023-03-02T14:34:23.693Z,97.28
2023-03-02T14:36:54.450Z,97.14
2023-03-02T14:39:35.733Z,96.70
2023-03-02T14:42:03.620Z,96.57
2023-03-02T14:44:30.894Z,97.09
2023-03-02T14:46:58.509Z,97.76
2023-03-02T14:49:26.051Z,97.12
2023-03-02T14:52:04.370Z,97.26
2023-03-02T14:54:44.936Z,96.84
2023-03-02T14:57:25.362Z,97.42
2023-03-02T14:59:53.744Z,98.32
2023-03-02T15:02:26.091Z,98.78
2023-03-02T15:04:57.057Z,98.25
2023-03-02T15:07:27.246Z,97.69
2023-03-02T15:09:56.723Z,97.53
2023-03-02T15:12:24.473Z,97.72
2023-03-02T15:14:51.644Z,98.76
2023-03-02T15:17:18.976Z,98.04
2023-03-02T15:19:46.331Z,98.05
2023-03-02T15:22:13.789Z,98.25
2023-03-02T15:24:41.006Z,98.33
2023-03-02T15:27:08.460Z,98.20
2023-03-02T15:29:35.886Z,97.88
2023-03-02T15:32:03.194Z,97.71
2023-03-02T15:34:30.385Z,97.69
2023-03-02T15:36:57.647Z,97.81
2023-03-02T15:39:24.858Z,99.09
2023-03-02T15:41:51.990Z,99.14
2023-03-02T15:44:24.157Z,98.65
2023-03-02T15:46:54.303Z,98.88
2023-03-02T15:49:24.552Z,99.19
2023-03-02T15:51:53.010Z,100.00
2023-03-02T15:54:21.578Z,100.00
2023-03-02T15:56:52.153Z,100.00
2023-03-02T15:59:21.271Z,100.00
2023-03-02T16:01:48.855Z,100.00
2023-03-02T16:04:16.320Z,100.00
2023-03-02T16:06:43.576Z,100.00
2023-03-02T16:09:10.851Z,100.00
2023-03-02T16:11:38.013Z,100.00
2023-03-02T16:14:05.327Z,100.00
2023-03-02T16:16:32.832Z,100.00
2023-03-02T16:19:00.189Z,100.00
2023-03-02T16:21:28.964Z,100.00
2023-03-02T16:24:03.293Z,100.00
2023-03-02T16:26:32.524Z,100.00
2023-03-02T16:29:00.300Z,100.00
2023-03-02T16:31:28.829Z,100.00
2023-03-02T16:33:58.203Z,100.00
2023-03-02T16:36:26.312Z,100.00
2023-03-02T16:38:53.570Z,100.00
2023-03-02T16:41:23.534Z,100.00
2023-03-02T16:43:56.628Z,100.00
2023-03-02T16:46:26.073Z,100.00
2023-03-02T16:48:53.710Z,100.00
2023-03-02T16:51:21.934Z,100.00
2023-03-02T16:53:49.617Z,100.00
2023-03-02T16:56:16.941Z,100.00
2023-03-02T16:58:44.319Z,100.00
2023-03-02T17:01:15.402Z,100.00
2023-03-02T17:03:43.337Z,100.00
2023-03-02T17:06:13.350Z,100.00
2023-03-02T17:08:41.383Z,100.00
2023-03-02T17:11:09.131Z,100.00
2023-03-02T17:13:36.537Z,100.00
2023-03-02T17:16:04.456Z,100.00
2023-03-02T17:18:32.953Z,100.00
2023-03-02T17:21:00.212Z,100.00
2023-03-02T17:23:28.270Z,100.00
2023-03-02T17:25:56.214Z,100.00
2023-03-02T17:28:24.230Z,100.00
2023-03-02T17:30:51.521Z,100.00
2023-03-02T17:33:18.878Z,100.00
2023-03-02T17:35:46.618Z,100.00
2023-03-02T17:38:15.056Z,100.00
2023-03-02T17:40:43.241Z,100.00
2023-03-02T17:43:12.565Z,100.00
2023-03-02T17:45:40.207Z,100.00
2023-03-02T17:48:07.714Z,100.00
2023-03-02T17:50:35.071Z,100.00
2023-03-02T17:53:03.105Z,100.00
2023-03-02T17:55:30.796Z,100.00
2023-03-02T17:57:58.247Z,100.00
2023-03-02T18:00:25.778Z,100.00
2023-03-02T18:02:53.837Z,100.00
2023-03-02T18:05:21.947Z,100.00
2023-03-02T18:07:49.315Z,100.00
2023-03-02T18:10:16.725Z,100.00
2023-03-02T18:12:43.943Z,100.00
2023-03-02T18:15:12.554Z,100.00
2023-03-02T18:17:40.106Z,100.00
2023-03-02T18:20:08.316Z,100.00
2023-03-02T18:22:35.419Z,100.00
2023-03-02T18:25:02.702Z,100.00
2023-03-02T18:27:30.017Z,100.00
2023-03-02T18:29:57.057Z,100.00
2023-03-02T18:32:24.793Z,100.00
2023-03-02T18:34:52.293Z,100.00
2023-03-02T18:37:19.614Z,100.00
2023-03-02T18:39:46.830Z,100.00
2023-03-02T18:42:14.050Z,100.00
2023-03-02T18:44:41.344Z,100.00
2023-03-02T18:47:10.845Z,100.00
2023-03-02T18:49:38.566Z,100.00
2023-03-02T18:52:05.888Z,100.00
2023-03-02T18:54:33.155Z,100.00
2023-03-02T18:57:01.694Z,100.00
2023-03-02T18:59:30.511Z,100.00
2023-03-02T19:01:58.807Z,100.00
2023-03-02T19:04:27.030Z,100.00
2023-03-02T19:06:56.217Z,100.00
2023-03-02T19:09:30.769Z,100.00
2023-03-02T19:12:00.407Z,100.00
2023-03-02T19:14:29.770Z,100.00
2023-03-02T19:16:58.082Z,100.00
2023-03-02T19:19:25.564Z,100.00
2023-03-02T19:21:53.057Z,100.00
2023-03-02T19:24:21.921Z,100.00
2023-03-02T19:26:51.008Z,100.00
2023-03-02T19:29:19.413Z,100.00
2023-03-02T19:31:47.080Z,100.00
2023-03-02T19:34:16.238Z,100.00
2023-03-02T19:36:45.585Z,100.00
2023-03-02T19:39:13.478Z,100.00
2023-03-02T19:41:41.271Z,100.00
2023-03-02T19:44:13.993Z,100.00
2023-03-02T19:46:42.851Z,100.00
2023-03-02T19:49:10.313Z,100.00
2023-03-02T19:51:37.530Z,100.00
2023-03-02T19:54:04.724Z,100.00
2023-03-02T19:56:35.055Z,100.00
2023-03-02T19:59:02.349Z,100.00
2023-03-02T20:01:30.187Z,100.00
2023-03-02T20:03:58.392Z,100.00
2023-03-02T20:06:30.629Z,100.00
2023-03-02T20:09:00.748Z,100.00
2023-03-02T20:11:30.764Z,100.00
2023-03-02T20:14:02.464Z,100.00
2023-03-02T20:16:31.713Z,100.00
2023-03-02T20:19:02.483Z,100.00
2023-03-02T20:21:34.373Z,100.00
2023-03-02T20:24:03.476Z,100.00
2023-03-02T20:26:37.052Z,100.00
2023-03-02T20:29:05.465Z,100.00
2023-03-02T20:31:33.617Z,100.00
2023-03-02T20:34:03.166Z,100.00
2023-03-02T20:36:33.796Z,100.00
2023-03-02T20:39:10.174Z,100.00
2023-03-02T20:41:37.766Z,100.00
2023-03-02T20:44:05.593Z,100.00
2023-03-02T20:46:38.480Z,100.00
2023-03-02T20:49:10.309Z,100.00
2023-03-02T20:51:44.614Z,100.00
2023-03-02T20:54:14.158Z,100.00
2023-03-02T20:56:42.096Z,100.00
2023-03-02T20:59:09.510Z,100.00
2023-03-02T21:01:37.324Z,100.00
2023-03-02T21:04:04.673Z,100.00
2023-03-02T21:06:36.231Z,100.00
2023-03-02T21:09:08.037Z,100.00
2023-03-02T21:11:36.342Z,100.00
2023-03-02T21:14:05.628Z,100.00
2023-03-02T21:16:38.164Z,100.00
2023-03-02T21:19:09.276Z,100.00
2023-03-02T21:21:41.845Z,100.00
2023-03-02T21:24:17.149Z,100.00
2023-03-02T21:26:46.907Z,100.00
2023-03-02T21:29:14.644Z,100.00
2023-03-02T21:31:44.064Z,100.00
2023-03-02T21:34:13.410Z,100.00
2023-03-02T21:36:43.068Z,100.00
2023-03-02T21:39:10.612Z,100.00
2023-03-02T21:41:38.112Z,100.00
2023-03-02T21:44:05.881Z,100.00
2023-03-02T21:46:41.641Z,100.00
2023-03-02T21:49:24.290Z,100.00
2023-03-02T21:51:53.034Z,100.00
2023-03-02T21:54:25.336Z,100.00
2023-03-02T21:57:14.415Z,100.00
2023-03-02T22:00:02.739Z,100.00
2023-03-02T22:06:26.277Z,100.00
2023-03-02T22:12:02.972Z,100.00
2023-03-02T22:14:34.880Z,100.00
2023-03-02T22:17:24.816Z,100.00
2023-03-02T22:19:56.436Z,100.00
2023-03-02T22:22:27.416Z,100.00
2023-03-02T22:24:54.971Z,100.00
2023-03-02T22:27:27.614Z,100.00
2023-03-02T22:29:59.177Z,100.00
2023-03-02T22:32:37.282Z,100.00
2023-03-02T22:35:23.457Z,100.00
2023-03-02T22:37:51.961Z,100.00
2023-03-02T22:40:25.439Z,100.00
2023-03-02T22:42:54.494Z,100.00
2023-03-02T22:45:22.493Z,100.00
2023-03-02T22:47:51.636Z,100.00
2023-03-02T22:50:27.973Z,100.00
2023-03-02T22:52:57.989Z,100.00
2023-03-02T22:55:43.363Z,100.00
2023-03-02T22:58:25.648Z,100.00
2023-03-02T23:00:53.099Z,100.00
2023-03-02T23:03:28.334Z,100.00
2023-03-02T23:05:55.706Z,100.00
2023-03-02T23:08:28.705Z,100.00
2023-03-02T23:10:59.056Z,100.00
2023-03-02T23:13:39.954Z,100.00
2023-03-02T23:16:20.202Z,100.00
2023-03-02T23:18:48.490Z,100.00
2023-03-02T23:21:20.692Z,100.00
2023-03-02T23:23:49.015Z,100.00
2023-03-02T23:26:19.695Z,100.00
2023-03-02T23:28:51.216Z,100.00
2023-03-02T23:31:18.566Z,100.00
2023-03-02T23:33:46.149Z,100.00
2023-03-02T23:36:14.120Z,100.00
2023-03-02T23:38:41.612Z,100.00
2023-03-02T23:41:10.123Z,100.00
2023-03-02T23:43:37.322Z,100.00
2023-03-02T23:46:04.811Z,100.00
2023-03-02T23:48:32.873Z,100.00
2023-03-02T23:51:01.583Z,100.00
2023-03-02T23:53:28.840Z,100.00
2023-03-02T23:55:56.022Z,100.00
2023-03-02T23:58:23.397Z,100.00
